Terminal Aerodrome Forecast
Issued by NWS

Home | Current Version | Previous Version | Text Only | Print | Product List | Glossary On
Versions: 1 2 3 4 5 6 7 8 9 10 11 12 13 14 15
000
FTUS41 KBTV 271130
TAFMSS
TAF
KMSS 271130Z 2712/2812 35006KT P6SM OVC035
     FM280300 32005KT P6SM OVC025
     FM280600 01004KT P6SM OVC015=

USA.gov is the U.S. government's official web portal to all federal, state and local government web resources and services.